createdAt,value
2023-10-19T00:04:55.290Z,7.1
2023-10-19T00:10:02.665Z,7.1
2023-10-19T00:15:09.960Z,7.2
2023-10-19T00:22:29.077Z,7.1
2023-10-19T00:27:36.529Z,7.1
2023-10-19T00:32:43.796Z,7.1
2023-10-19T00:37:51.148Z,7.1
2023-10-19T00:42:58.606Z,7.1
2023-10-19T00:48:05.862Z,6.9
2023-10-19T00:53:13.188Z,6.9
2023-10-19T00:58:20.975Z,6.9
2023-10-19T01:03:27.967Z,6.9
2023-10-19T01:08:35.348Z,6.8
2023-10-19T01:13:42.675Z,7
2023-10-19T01:18:50.042Z,6.8
2023-10-19T01:23:57.570Z,6.9
2023-10-19T01:29:04.775Z,7
2023-10-19T01:34:12.283Z,6.9
2023-10-19T01:39:19.530Z,7
2023-10-19T01:44:27.058Z,7.1
2023-10-19T01:49:34.253Z,7.1
2023-10-19T01:54:41.514Z,7.1
2023-10-19T01:59:48.846Z,7.1
2023-10-19T02:04:56.468Z,7.2
2023-10-19T02:10:03.715Z,7.2
2023-10-19T02:15:10.927Z,7.3
2023-10-19T02:20:21.263Z,7.2
2023-10-19T02:25:25.724Z,7.1
2023-10-19T02:30:33.189Z,7.1
2023-10-19T02:35:40.419Z,7.1
2023-10-19T02:40:47.872Z,7.1
2023-10-19T02:45:55.082Z,7.1
2023-10-19T02:51:02.836Z,7.2
2023-10-19T02:56:09.846Z,7.1
2023-10-19T03:01:17.224Z,7.1
2023-10-19T03:06:24.682Z,7
2023-10-19T03:11:31.900Z,7
2023-10-19T03:16:39.292Z,7.1
2023-10-19T03:21:46.651Z,7.1
2023-10-19T03:26:53.975Z,7.2
2023-10-19T03:32:01.379Z,7.2
2023-10-19T03:37:08.704Z,7.3
2023-10-19T03:42:16.039Z,7.2
2023-10-19T03:47:23.449Z,7.3
2023-10-19T03:52:30.749Z,7.3
2023-10-19T03:57:38.147Z,7.1
2023-10-19T04:02:45.523Z,7
2023-10-19T04:07:52.970Z,6.9
2023-10-19T04:13:00.156Z,7
2023-10-19T04:18:07.502Z,7.2
2023-10-19T04:23:16.616Z,7.2
2023-10-19T04:28:22.220Z,7.2
2023-10-19T04:33:29.551Z,7.3
2023-10-19T04:38:36.896Z,7.3
2023-10-19T04:43:44.290Z,7.4
2023-10-19T04:48:51.766Z,7.4
2023-10-19T04:53:58.970Z,7.6
2023-10-19T04:59:06.307Z,7.6
2023-10-19T05:04:13.756Z,7.6
2023-10-19T05:09:21.058Z,7.6
2023-10-19T05:14:28.386Z,7.5
2023-10-19T05:19:37.773Z,7.5
2023-10-19T05:24:43.098Z,7.4
2023-10-19T05:29:50.468Z,7.4
2023-10-19T05:34:59.761Z,7.4
2023-10-19T05:40:05.193Z,7.3
2023-10-19T05:45:12.541Z,7.4
2023-10-19T05:50:19.892Z,7.3
2023-10-19T05:55:27.286Z,7.3
2023-10-19T06:00:34.620Z,7.4
2023-10-19T06:05:41.964Z,7.5
2023-10-19T06:10:49.441Z,7.6
2023-10-19T06:15:56.815Z,7.6
2023-10-19T06:21:04.126Z,7.6
2023-10-19T06:26:11.386Z,7.7
2023-10-19T06:31:18.743Z,7.8
2023-10-19T06:36:26.108Z,7.8
2023-10-19T06:41:33.452Z,7.9
2023-10-19T06:46:40.900Z,8
2023-10-19T06:51:48.213Z,8.4
2023-10-19T06:56:55.514Z,8.7
2023-10-19T07:02:02.997Z,9.2
2023-10-19T07:07:10.248Z,9.5
2023-10-19T07:12:19.792Z,9.6
2023-10-19T07:17:25.117Z,9.5
2023-10-19T07:22:32.479Z,9.6
2023-10-19T07:27:39.670Z,9.8
2023-10-19T07:32:47.017Z,9.7
2023-10-19T07:37:54.440Z,9.9
2023-10-19T07:43:01.758Z,10.2
2023-10-19T07:48:09.109Z,10.3
2023-10-19T07:53:16.449Z,11.1
2023-10-19T07:58:23.808Z,10.9
2023-10-19T08:03:31.195Z,11.1
2023-10-19T08:08:38.515Z,11.3
2023-10-19T08:13:45.912Z,11
2023-10-19T08:18:54.568Z,11.3
2023-10-19T08:24:00.593Z,11.3
2023-10-19T08:29:08.202Z,12
2023-10-19T08:34:15.270Z,12.4
2023-10-19T08:39:22.654Z,12.7
2023-10-19T08:44:30.152Z,13
2023-10-19T08:49:37.383Z,13.6
2023-10-19T08:54:44.708Z,13.7
2023-10-19T08:59:52.077Z,13.7
2023-10-19T09:04:59.478Z,13.2
2023-10-19T09:10:06.790Z,12.1
2023-10-19T09:15:14.126Z,11.8
2023-10-19T09:20:21.487Z,11.8
2023-10-19T09:25:28.861Z,11.8
2023-10-19T09:30:36.200Z,11.8
2023-10-19T09:35:43.588Z,11.5
2023-10-19T09:40:50.961Z,11.7
2023-10-19T09:45:58.298Z,11.9
2023-10-19T09:51:05.624Z,12.2
2023-10-19T09:56:13.013Z,12.3
2023-10-19T10:01:20.364Z,12.2
2023-10-19T10:06:27.710Z,12.4
2023-10-19T10:11:35.104Z,13.3
2023-10-19T10:16:42.507Z,13.7
2023-10-19T10:21:49.798Z,13.5
2023-10-19T10:26:57.168Z,13.7
2023-10-19T10:32:04.605Z,14
2023-10-19T10:37:11.885Z,12.9
2023-10-19T10:42:19.389Z,13.2
2023-10-19T10:47:26.590Z,13.6
2023-10-19T10:52:33.970Z,13.4
2023-10-19T10:57:41.304Z,13.2
2023-10-19T11:02:48.777Z,13.8
2023-10-19T11:07:56.132Z,14.5
2023-10-19T11:13:03.390Z,15.2
2023-10-19T11:18:10.764Z,15.1
2023-10-19T11:23:18.279Z,14.4
2023-10-19T11:28:25.446Z,14.1
2023-10-19T11:33:32.817Z,13.6
2023-10-19T11:38:40.160Z,13.3
2023-10-19T11:43:47.686Z,13.5
2023-10-19T11:48:55.021Z,13.6
2023-10-19T11:54:02.264Z,13.6
2023-10-19T11:59:09.611Z,13.3
2023-10-19T12:04:16.996Z,13.2
2023-10-19T12:09:24.306Z,13.7
2023-10-19T12:14:31.778Z,14.3
2023-10-19T12:19:39.082Z,14.7
2023-10-19T12:24:46.392Z,14.9
2023-10-19T12:29:53.739Z,14.1
2023-10-19T12:35:01.117Z,13.6
2023-10-19T12:40:08.596Z,13.1
2023-10-19T12:45:16.012Z,13.3
2023-10-19T12:50:23.146Z,13.7
2023-10-19T12:55:30.519Z,14
2023-10-19T13:00:37.889Z,14
2023-10-19T13:05:45.226Z,13.5
2023-10-19T13:10:53.587Z,13.6
2023-10-19T13:16:00.021Z,13.1
2023-10-19T13:21:07.487Z,13.4
2023-10-19T13:31:22.042Z,13.4
2023-10-19T13:36:29.402Z,13.4
2023-10-19T13:41:36.720Z,13.5
2023-10-19T13:46:44.101Z,13.7
2023-10-19T13:51:51.457Z,13.7
2023-10-19T13:56:58.795Z,13.2
2023-10-19T14:02:06.199Z,13.2
2023-10-19T14:07:13.492Z,13.1
2023-10-19T14:12:20.865Z,13.1
2023-10-19T14:17:28.546Z,13
2023-10-19T14:22:35.593Z,12.9
2023-10-19T14:27:42.932Z,13
2023-10-19T14:32:50.402Z,13
2023-10-19T14:37:57.970Z,13
2023-10-19T14:43:05.024Z,12.9
2023-10-19T14:48:12.438Z,12.7
2023-10-19T14:53:19.811Z,12.5
2023-10-19T14:58:27.196Z,12.3
2023-10-19T15:03:34.483Z,12.1
2023-10-19T15:08:41.782Z,12
2023-10-19T15:13:49.234Z,11.9
2023-10-19T15:18:56.505Z,11.9
2023-10-19T15:24:03.895Z,11.7
2023-10-19T15:29:11.273Z,11.6
2023-10-19T15:34:18.744Z,11.5
2023-10-19T15:39:25.942Z,11.4
2023-10-19T15:44:33.460Z,11.2
2023-10-19T15:49:40.709Z,11.2
2023-10-19T15:54:48.001Z,11.2
2023-10-19T15:59:55.395Z,11.1
2023-10-19T16:05:02.860Z,11.1
2023-10-19T16:10:10.406Z,10.9
2023-10-19T16:15:17.480Z,10.8
2023-10-19T16:20:24.848Z,10.6
2023-10-19T16:25:32.151Z,10.4
2023-10-19T16:30:39.515Z,10.3
2023-10-19T16:35:46.981Z,10.3
2023-10-19T16:40:54.253Z,10.2
2023-10-19T16:46:01.631Z,10
2023-10-19T16:51:08.912Z,10
2023-10-19T16:56:16.453Z,9.9
2023-10-19T17:01:23.691Z,9.8
2023-10-19T17:06:30.989Z,9.7
2023-10-19T17:11:38.350Z,9.8
2023-10-19T17:16:45.966Z,9.8
2023-10-19T17:21:53.054Z,9.6
2023-10-19T17:29:12.155Z,9.5
2023-10-19T17:34:19.510Z,9.4
2023-10-19T17:39:26.866Z,9.5
2023-10-19T17:44:34.640Z,9.6
2023-10-19T17:49:41.570Z,9.6
2023-10-19T17:54:48.939Z,9.6
2023-10-19T17:59:56.285Z,9.6
2023-10-19T18:05:03.889Z,9.5
2023-10-19T18:10:10.999Z,9.4
2023-10-19T18:15:18.353Z,9.3
2023-10-19T18:20:25.834Z,9.5
2023-10-19T18:25:33.053Z,9.2
2023-10-19T18:30:40.416Z,9.3
2023-10-19T18:35:47.821Z,9.3
2023-10-19T18:40:55.138Z,9.2
2023-10-19T18:46:02.541Z,9.3
2023-10-19T18:51:10.012Z,9.3
2023-10-19T18:56:17.229Z,9.2
2023-10-19T19:01:24.578Z,9.1
2023-10-19T19:06:32.307Z,9
2023-10-19T19:11:39.338Z,9.1
2023-10-19T19:16:46.860Z,9
2023-10-19T19:21:54.018Z,9.1
2023-10-19T19:27:01.412Z,9.1
2023-10-19T19:32:08.847Z,9
2023-10-19T19:37:16.081Z,9
2023-10-19T19:42:23.604Z,9.1
2023-10-19T19:47:30.846Z,9.1
2023-10-19T19:52:38.170Z,9
2023-10-19T19:57:45.806Z,9
2023-10-19T20:02:52.950Z,8.9
2023-10-19T20:08:00.351Z,8.9
2023-10-19T20:13:07.593Z,8.8
2023-10-19T20:18:15.009Z,8.7
2023-10-19T20:23:22.328Z,8.9
2023-10-19T20:28:29.659Z,9
2023-10-19T20:33:37.091Z,9
2023-10-19T20:38:44.364Z,8.9
2023-10-19T20:43:51.767Z,8.8
2023-10-19T20:48:59.232Z,8.7
2023-10-19T20:54:06.434Z,8.6
2023-10-19T20:59:13.840Z,8.6
2023-10-19T21:04:21.180Z,8.6
2023-10-19T21:09:28.528Z,8.9
2023-10-19T21:14:35.927Z,8.9
2023-10-19T21:19:43.220Z,8.9
2023-10-19T21:24:50.680Z,8.8
2023-10-19T21:29:57.942Z,8.8
2023-10-19T21:35:05.314Z,8.7
2023-10-19T21:40:13.224Z,8.6
2023-10-19T21:45:20.212Z,8.9
2023-10-19T21:50:27.381Z,8.9
2023-10-19T21:55:34.739Z,8.8
2023-10-19T22:00:42.107Z,8.8
2023-10-19T22:05:49.578Z,8.8
2023-10-19T22:10:56.788Z,8.8
2023-10-19T22:16:04.185Z,8.7
2023-10-19T22:21:11.500Z,8.7
2023-10-19T22:26:18.891Z,8.8
2023-10-19T22:31:26.234Z,8.7
2023-10-19T22:36:33.762Z,8.8
2023-10-19T22:41:40.934Z,9
2023-10-19T22:46:48.299Z,9
2023-10-19T22:51:55.815Z,9
2023-10-19T22:57:03.035Z,8.9
2023-10-19T23:02:10.455Z,9
2023-10-19T23:07:17.871Z,9
2023-10-19T23:12:25.227Z,8.9
2023-10-19T23:17:32.489Z,8.9
2023-10-19T23:22:39.791Z,8.9
2023-10-19T23:27:47.172Z,8.9
2023-10-19T23:32:54.523Z,9
2023-10-19T23:38:01.924Z,9
2023-10-19T23:43:09.196Z,8.9
2023-10-19T23:48:16.581Z,8.8
2023-10-19T23:53:24.017Z,8.7
2023-10-19T23:58:31.272Z,8.8
